sensor_id;sensor_type;location;lat;lon;timestamp;pressure;altitude;pressure_sealevel;temperature
62932;BMP280;49037;41.898;25.004;2022-07-18T00:09:46;97060.16;;;19.69
62932;BMP280;49037;41.898;25.004;2022-07-18T01:22:08;97041.16;;;18.80
62932;BMP280;49037;41.898;25.004;2022-07-18T01:24:53;97034.75;;;18.57
62932;BMP280;49037;41.898;25.004;2022-07-18T01:33:56;97029.63;;;18.42
62932;BMP280;49037;41.898;25.004;2022-07-18T01:36:31;97027.66;;;18.43
62932;BMP280;49037;41.898;25.004;2022-07-18T01:39:02;97022.06;;;18.31
62932;BMP280;49037;41.898;25.004;2022-07-18T01:48:07;97022.19;;;18.71
62932;BMP280;49037;41.898;25.004;2022-07-18T01:50:40;97019.09;;;18.56
62932;BMP280;49037;41.898;25.004;2022-07-18T02:13:07;97038.00;;;17.64
62932;BMP280;49037;41.898;25.004;2022-07-18T02:36:03;97051.94;;;17.08
62932;BMP280;49037;41.898;25.004;2022-07-18T02:58:10;97071.56;;;16.58
62932;BMP280;49037;41.898;25.004;2022-07-18T03:16:41;97069.13;;;16.53
62932;BMP280;49037;41.898;25.004;2022-07-18T03:19:39;97073.19;;;16.61
62932;BMP280;49037;41.898;25.004;2022-07-18T03:32:16;97067.22;;;16.63
62932;BMP280;49037;41.898;25.004;2022-07-18T03:35:03;97072.38;;;16.68
62932;BMP280;49037;41.898;25.004;2022-07-18T03:41:32;97082.69;;;16.62
62932;BMP280;49037;41.898;25.004;2022-07-18T03:44:22;97069.06;;;16.60
62932;BMP280;49037;41.898;25.004;2022-07-18T03:50:47;97067.63;;;16.59
62932;BMP280;49037;41.898;25.004;2022-07-18T03:53:19;97067.38;;;16.48
62932;BMP280;49037;41.898;25.004;2022-07-18T03:56:19;97067.00;;;16.51
62932;BMP280;49037;41.898;25.004;2022-07-18T03:58:45;97079.34;;;16.54
62932;BMP280;49037;41.898;25.004;2022-07-18T05:03:09;97125.38;;;18.11
62932;BMP280;49037;41.898;25.004;2022-07-18T05:19:58;97127.13;;;19.47
62932;BMP280;49037;41.898;25.004;2022-07-18T05:25:10;97108.94;;;19.69
62932;BMP280;49037;41.898;25.004;2022-07-18T05:31:38;97130.63;;;19.99
62932;BMP280;49037;41.898;25.004;2022-07-18T05:34:09;97128.44;;;20.27
62932;BMP280;49037;41.898;25.004;2022-07-18T05:36:37;97140.81;;;20.60
62932;BMP280;49037;41.898;25.004;2022-07-18T05:55:18;97147.88;;;22.54
62932;BMP280;49037;41.898;25.004;2022-07-18T06:18:23;97150.47;;;23.78
62932;BMP280;49037;41.898;25.004;2022-07-18T06:23:17;97158.38;;;23.72
62932;BMP280;49037;41.898;25.004;2022-07-18T06:25:52;97154.84;;;23.96
62932;BMP280;49037;41.898;25.004;2022-07-18T06:28:48;97164.53;;;24.12
62932;BMP280;49037;41.898;25.004;2022-07-18T06:34:42;97145.28;;;24.37
62932;BMP280;49037;41.898;25.004;2022-07-18T06:37:16;97163.34;;;24.57
62932;BMP280;49037;41.898;25.004;2022-07-18T06:39:49;97163.25;;;24.55
62932;BMP280;49037;41.898;25.004;2022-07-18T06:46:07;97161.88;;;24.98
62932;BMP280;49037;41.898;25.004;2022-07-18T06:48:33;97158.22;;;25.22
62932;BMP280;49037;41.898;25.004;2022-07-18T06:51:09;97150.63;;;25.36
62932;BMP280;49037;41.898;25.004;2022-07-18T06:53:45;97169.31;;;25.57
62932;BMP280;49037;41.898;25.004;2022-07-18T06:56:11;97157.06;;;25.58
62932;BMP280;49037;41.898;25.004;2022-07-18T06:58:37;97172.44;;;25.65
62932;BMP280;49037;41.898;25.004;2022-07-18T07:01:02;97167.22;;;25.55
62932;BMP280;49037;41.898;25.004;2022-07-18T07:03:28;97172.59;;;25.23
62932;BMP280;49037;41.898;25.004;2022-07-18T07:05:56;97159.19;;;25.29
62932;BMP280;49037;41.898;25.004;2022-07-18T07:08:32;97168.34;;;25.50
62932;BMP280;49037;41.898;25.004;2022-07-18T07:11:00;97166.69;;;25.43
62932;BMP280;49037;41.898;25.004;2022-07-18T07:13:26;97171.53;;;25.30
62932;BMP280;49037;41.898;25.004;2022-07-18T07:15:51;97161.09;;;25.57
62932;BMP280;49037;41.898;25.004;2022-07-18T07:18:25;97158.75;;;25.65
62932;BMP280;49037;41.898;25.004;2022-07-18T07:21:02;97167.84;;;26.02
62932;BMP280;49037;41.898;25.004;2022-07-18T07:24:00;97171.84;;;26.31
62932;BMP280;49037;41.898;25.004;2022-07-18T07:26:55;97165.91;;;26.37
62932;BMP280;49037;41.898;25.004;2022-07-18T07:29:20;97168.56;;;26.52
62932;BMP280;49037;41.898;25.004;2022-07-18T07:35:53;97165.25;;;27.07
62932;BMP280;49037;41.898;25.004;2022-07-18T07:42:09;97172.03;;;27.23
62932;BMP280;49037;41.898;25.004;2022-07-18T07:44:35;97160.56;;;26.92
62932;BMP280;49037;41.898;25.004;2022-07-18T07:47:05;97167.78;;;27.20
62932;BMP280;49037;41.898;25.004;2022-07-18T07:49:34;97164.28;;;27.18
62932;BMP280;49037;41.898;25.004;2022-07-18T07:52:02;97168.34;;;27.17
62932;BMP280;49037;41.898;25.004;2022-07-18T07:54:27;97174.41;;;26.96
62932;BMP280;49037;41.898;25.004;2022-07-18T07:56:56;97172.56;;;27.01
62932;BMP280;49037;41.898;25.004;2022-07-18T07:59:21;97164.28;;;27.18
62932;BMP280;49037;41.898;25.004;2022-07-18T08:01:47;97160.91;;;27.38
62932;BMP280;49037;41.898;25.004;2022-07-18T08:04:12;97157.94;;;27.33
62932;BMP280;49037;41.898;25.004;2022-07-18T08:06:46;97166.59;;;26.89
62932;BMP280;49037;41.898;25.004;2022-07-18T08:09:12;97163.03;;;26.86
62932;BMP280;49037;41.898;25.004;2022-07-18T08:11:38;97160.88;;;26.48
62932;BMP280;49037;41.898;25.004;2022-07-18T08:14:09;97149.47;;;26.54
62932;BMP280;49037;41.898;25.004;2022-07-18T08:16:35;97170.06;;;26.89
62932;BMP280;49037;41.898;25.004;2022-07-18T08:19:03;97167.03;;;27.18
62932;BMP280;49037;41.898;25.004;2022-07-18T08:21:34;97165.41;;;27.30
62932;BMP280;49037;41.898;25.004;2022-07-18T08:24:09;97157.91;;;27.31
62932;BMP280;49037;41.898;25.004;2022-07-18T08:32:55;97157.09;;;28.26
62932;BMP280;49037;41.898;25.004;2022-07-18T08:35:27;97166.22;;;28.33
62932;BMP280;49037;41.898;25.004;2022-07-18T08:38:04;97174.66;;;28.17
62932;BMP280;49037;41.898;25.004;2022-07-18T08:40:33;97167.44;;;28.49
62932;BMP280;49037;41.898;25.004;2022-07-18T08:46:05;97166.13;;;28.96
62932;BMP280;49037;41.898;25.004;2022-07-18T08:48:35;97157.47;;;28.82
62932;BMP280;49037;41.898;25.004;2022-07-18T08:51:04;97159.81;;;28.69
62932;BMP280;49037;41.898;25.004;2022-07-18T08:53:39;97160.25;;;28.61
62932;BMP280;49037;41.898;25.004;2022-07-18T08:56:18;97166.81;;;28.73
62932;BMP280;49037;41.898;25.004;2022-07-18T08:58:51;97173.72;;;28.74
62932;BMP280;49037;41.898;25.004;2022-07-18T09:01:17;97163.72;;;28.85
62932;BMP280;49037;41.898;25.004;2022-07-18T09:07:34;97159.91;;;29.19
62932;BMP280;49037;41.898;25.004;2022-07-18T09:13:40;97182.78;;;29.48
62932;BMP280;49037;41.898;25.004;2022-07-18T09:16:21;97172.13;;;29.62
62932;BMP280;49037;41.898;25.004;2022-07-18T09:19:15;97171.13;;;29.75
62932;BMP280;49037;41.898;25.004;2022-07-18T09:21:41;97161.59;;;29.80
62932;BMP280;49037;41.898;25.004;2022-07-18T09:24:06;97170.09;;;29.63
62932;BMP280;49037;41.898;25.004;2022-07-18T09:26:43;97175.38;;;29.30
62932;BMP280;49037;41.898;25.004;2022-07-18T09:32:21;97161.56;;;29.28
62932;BMP280;49037;41.898;25.004;2022-07-18T09:34:50;97170.34;;;29.22
62932;BMP280;49037;41.898;25.004;2022-07-18T09:37:36;97171.69;;;29.44
62932;BMP280;49037;41.898;25.004;2022-07-18T09:40:29;97174.94;;;29.64
62932;BMP280;49037;41.898;25.004;2022-07-18T09:43:23;97173.66;;;29.67
62932;BMP280;49037;41.898;25.004;2022-07-18T09:45:58;97156.41;;;29.67
62932;BMP280;49037;41.898;25.004;2022-07-18T09:49:09;97160.69;;;29.46
62932;BMP280;49037;41.898;25.004;2022-07-18T09:51:37;97155.91;;;29.72
62932;BMP280;49037;41.898;25.004;2022-07-18T09:54:03;97155.78;;;29.95
62932;BMP280;49037;41.898;25.004;2022-07-18T09:56:45;97142.66;;;29.94
62932;BMP280;49037;41.898;25.004;2022-07-18T09:59:15;97141.34;;;29.97
62932;BMP280;49037;41.898;25.004;2022-07-18T10:01:41;97145.09;;;30.09
62932;BMP280;49037;41.898;25.004;2022-07-18T10:04:09;97145.84;;;30.11
62932;BMP280;49037;41.898;25.004;2022-07-18T10:06:38;97141.53;;;30.04
62932;BMP280;49037;41.898;25.004;2022-07-18T10:09:07;97137.38;;;29.49
62932;BMP280;49037;41.898;25.004;2022-07-18T10:11:33;97140.16;;;29.51
62932;BMP280;49037;41.898;25.004;2022-07-18T10:13:59;97142.53;;;29.38
62932;BMP280;49037;41.898;25.004;2022-07-18T10:16:27;97134.16;;;29.34
62932;BMP280;49037;41.898;25.004;2022-07-18T10:18:53;97147.69;;;29.49
62932;BMP280;49037;41.898;25.004;2022-07-18T10:21:20;97134.50;;;29.45
62932;BMP280;49037;41.898;25.004;2022-07-18T10:23:47;97135.78;;;29.17
62932;BMP280;49037;41.898;25.004;2022-07-18T10:26:18;97131.00;;;29.18
62932;BMP280;49037;41.898;25.004;2022-07-18T10:34:30;97120.88;;;29.51
62932;BMP280;49037;41.898;25.004;2022-07-18T10:40:37;97122.19;;;29.48
62932;BMP280;49037;41.898;25.004;2022-07-18T10:45:56;97122.56;;;29.62
62932;BMP280;49037;41.898;25.004;2022-07-18T10:51:11;97116.94;;;30.12
62932;BMP280;49037;41.898;25.004;2022-07-18T10:53:56;97119.34;;;30.28
62932;BMP280;49037;41.898;25.004;2022-07-18T10:58:56;97107.63;;;29.98
62932;BMP280;49037;41.898;25.004;2022-07-18T11:14:07;97081.31;;;30.86
62932;BMP280;49037;41.898;25.004;2022-07-18T11:17:05;97086.38;;;30.65
62932;BMP280;49037;41.898;25.004;2022-07-18T11:19:39;97085.25;;;30.42
62932;BMP280;49037;41.898;25.004;2022-07-18T11:22:17;97095.25;;;30.28
62932;BMP280;49037;41.898;25.004;2022-07-18T11:28:12;97082.91;;;30.31
62932;BMP280;49037;41.898;25.004;2022-07-18T11:30:57;97090.09;;;30.44
62932;BMP280;49037;41.898;25.004;2022-07-18T11:34:03;97081.59;;;30.34
62932;BMP280;49037;41.898;25.004;2022-07-18T11:36:41;97082.91;;;30.31
62932;BMP280;49037;41.898;25.004;2022-07-18T11:39:14;97077.81;;;30.51
62932;BMP280;49037;41.898;25.004;2022-07-18T11:46:45;97065.94;;;30.42
62932;BMP280;49037;41.898;25.004;2022-07-18T11:49:13;97077.28;;;29.96
62932;BMP280;49037;41.898;25.004;2022-07-18T11:51:43;97063.44;;;29.94
62932;BMP280;49037;41.898;25.004;2022-07-18T11:54:10;97067.88;;;30.07
62932;BMP280;49037;41.898;25.004;2022-07-18T11:56:55;97065.38;;;30.19
62932;BMP280;49037;41.898;25.004;2022-07-18T11:59:34;97059.38;;;30.26
62932;BMP280;49037;41.898;25.004;2022-07-18T12:02:00;97055.34;;;30.31
62932;BMP280;49037;41.898;25.004;2022-07-18T12:04:35;97060.88;;;30.02
62932;BMP280;49037;41.898;25.004;2022-07-18T12:07:27;97063.91;;;29.85
62932;BMP280;49037;41.898;25.004;2022-07-18T12:09:55;97055.59;;;29.83
62932;BMP280;49037;41.898;25.004;2022-07-18T12:12:35;97055.56;;;30.10
62932;BMP280;49037;41.898;25.004;2022-07-18T12:15:03;97057.97;;;29.96
62932;BMP280;49037;41.898;25.004;2022-07-18T12:17:29;97056.09;;;30.04
62932;BMP280;49037;41.898;25.004;2022-07-18T12:20:17;97049.00;;;29.96
62932;BMP280;49037;41.898;25.004;2022-07-18T12:23:09;97056.47;;;29.64
62932;BMP280;49037;41.898;25.004;2022-07-18T12:25:43;97051.41;;;29.53
62932;BMP280;49037;41.898;25.004;2022-07-18T12:28:18;97053.78;;;29.14
62932;BMP280;49037;41.898;25.004;2022-07-18T12:30:45;97045.88;;;29.26
62932;BMP280;49037;41.898;25.004;2022-07-18T12:33:14;97045.09;;;29.48
62932;BMP280;49037;41.898;25.004;2022-07-18T12:35:42;97055.31;;;29.71
62932;BMP280;49037;41.898;25.004;2022-07-18T12:40:57;97047.94;;;29.52
62932;BMP280;49037;41.898;25.004;2022-07-18T12:43:29;97044.13;;;29.65
62932;BMP280;49037;41.898;25.004;2022-07-18T12:45:57;97035.50;;;29.78
62932;BMP280;49037;41.898;25.004;2022-07-18T12:48:30;97036.47;;;29.91
62932;BMP280;49037;41.898;25.004;2022-07-18T12:50:58;97036.00;;;30.00
62932;BMP280;49037;41.898;25.004;2022-07-18T12:53:28;97031.50;;;30.14
62932;BMP280;49037;41.898;25.004;2022-07-18T12:55:59;97037.75;;;30.17
62932;BMP280;49037;41.898;25.004;2022-07-18T12:58:25;97027.50;;;29.88
62932;BMP280;49037;41.898;25.004;2022-07-18T13:00:50;97033.34;;;29.48
62932;BMP280;49037;41.898;25.004;2022-07-18T13:03:16;97031.97;;;29.74
62932;BMP280;49037;41.898;25.004;2022-07-18T13:05:42;97038.94;;;29.77
62932;BMP280;49037;41.898;25.004;2022-07-18T13:08:08;97034.94;;;29.84
62932;BMP280;49037;41.898;25.004;2022-07-18T13:10:34;97025.34;;;29.87
62932;BMP280;49037;41.898;25.004;2022-07-18T13:13:04;97035.53;;;30.09
62932;BMP280;49037;41.898;25.004;2022-07-18T13:15:32;97035.81;;;30.21
62932;BMP280;49037;41.898;25.004;2022-07-18T13:17:58;97030.22;;;30.17
62932;BMP280;49037;41.898;25.004;2022-07-18T13:20:29;97027.47;;;30.19
62932;BMP280;49037;41.898;25.004;2022-07-18T13:22:58;97024.16;;;29.94
62932;BMP280;49037;41.898;25.004;2022-07-18T13:25:29;97033.16;;;29.67
62932;BMP280;49037;41.898;25.004;2022-07-18T13:27:58;97021.34;;;29.63
62932;BMP280;49037;41.898;25.004;2022-07-18T13:30:23;97020.91;;;29.72
62932;BMP280;49037;41.898;25.004;2022-07-18T13:32:55;97018.34;;;29.80
62932;BMP280;49037;41.898;25.004;2022-07-18T13:35:41;97017.16;;;29.62
62932;BMP280;49037;41.898;25.004;2022-07-18T13:38:07;97014.94;;;29.54
62932;BMP280;49037;41.898;25.004;2022-07-18T13:40:32;97016.50;;;29.61
62932;BMP280;49037;41.898;25.004;2022-07-18T13:42:58;97022.44;;;29.79
62932;BMP280;49037;41.898;25.004;2022-07-18T13:45:23;97010.13;;;29.84
62932;BMP280;49037;41.898;25.004;2022-07-18T13:47:49;97018.66;;;29.65
62932;BMP280;49037;41.898;25.004;2022-07-18T13:50:14;97014.56;;;29.66
62932;BMP280;49037;41.898;25.004;2022-07-18T13:52:40;97023.50;;;29.12
62932;BMP280;49037;41.898;25.004;2022-07-18T13:55:06;97030.13;;;28.78
62932;BMP280;49037;41.898;25.004;2022-07-18T13:57:31;97021.56;;;28.91
62932;BMP280;49037;41.898;25.004;2022-07-18T13:59:57;97021.28;;;29.06
62932;BMP280;49037;41.898;25.004;2022-07-18T14:02:23;97005.34;;;29.03
62932;BMP280;49037;41.898;25.004;2022-07-18T14:04:48;97005.38;;;29.30
62932;BMP280;49037;41.898;25.004;2022-07-18T14:07:14;97012.06;;;29.50
62932;BMP280;49037;41.898;25.004;2022-07-18T14:09:43;97000.06;;;29.65
62932;BMP280;49037;41.898;25.004;2022-07-18T14:12:09;97012.91;;;29.55
62932;BMP280;49037;41.898;25.004;2022-07-18T14:14:34;97013.75;;;29.61
62932;BMP280;49037;41.898;25.004;2022-07-18T14:17:00;97008.09;;;29.55
62932;BMP280;49037;41.898;25.004;2022-07-18T14:19:25;97003.53;;;29.38
62932;BMP280;49037;41.898;25.004;2022-07-18T14:21:50;97006.59;;;29.23
62932;BMP280;49037;41.898;25.004;2022-07-18T14:24:17;97009.75;;;29.14
62932;BMP280;49037;41.898;25.004;2022-07-18T14:26:42;97008.72;;;29.00
62932;BMP280;49037;41.898;25.004;2022-07-18T14:29:08;97013.56;;;29.01
62932;BMP280;49037;41.898;25.004;2022-07-18T14:31:33;97011.09;;;28.86
62932;BMP280;49037;41.898;25.004;2022-07-18T14:33:59;97008.81;;;28.78
62932;BMP280;49037;41.898;25.004;2022-07-18T14:36:24;97007.19;;;28.70
62932;BMP280;49037;41.898;25.004;2022-07-18T14:38:50;97014.56;;;28.63
62932;BMP280;49037;41.898;25.004;2022-07-18T14:41:18;96997.41;;;28.65
62932;BMP280;49037;41.898;25.004;2022-07-18T14:43:47;97010.19;;;28.54
62932;BMP280;49037;41.898;25.004;2022-07-18T14:46:12;97010.78;;;28.51
62932;BMP280;49037;41.898;25.004;2022-07-18T14:49:13;97000.38;;;28.24
62932;BMP280;49037;41.898;25.004;2022-07-18T14:51:38;96998.19;;;28.21
62932;BMP280;49037;41.898;25.004;2022-07-18T14:54:04;97005.16;;;28.24
62932;BMP280;49037;41.898;25.004;2022-07-18T14:56:34;96995.84;;;28.11
62932;BMP280;49037;41.898;25.004;2022-07-18T14:59:03;97009.34;;;28.25
62932;BMP280;49037;41.898;25.004;2022-07-18T15:01:28;97003.47;;;28.36
62932;BMP280;49037;41.898;25.004;2022-07-18T15:03:57;96994.69;;;28.41
62932;BMP280;49037;41.898;25.004;2022-07-18T15:06:23;97001.09;;;28.50
62932;BMP280;49037;41.898;25.004;2022-07-18T15:08:51;96985.38;;;28.52
62932;BMP280;49037;41.898;25.004;2022-07-18T15:11:16;96987.69;;;28.37
62932;BMP280;49037;41.898;25.004;2022-07-18T15:13:46;96991.53;;;28.28
62932;BMP280;49037;41.898;25.004;2022-07-18T15:16:13;96990.47;;;28.15
62932;BMP280;49037;41.898;25.004;2022-07-18T15:18:38;96991.50;;;28.05
62932;BMP280;49037;41.898;25.004;2022-07-18T15:21:04;96992.81;;;28.02
62932;BMP280;49037;41.898;25.004;2022-07-18T15:23:30;96997.28;;;27.91
62932;BMP280;49037;41.898;25.004;2022-07-18T15:25:55;96999.28;;;27.89
62932;BMP280;49037;41.898;25.004;2022-07-18T15:28:21;96994.75;;;27.76
62932;BMP280;49037;41.898;25.004;2022-07-18T15:30:50;96992.59;;;27.73
62932;BMP280;49037;41.898;25.004;2022-07-18T15:33:16;96992.00;;;27.76
62932;BMP280;49037;41.898;25.004;2022-07-18T15:35:42;96995.53;;;27.78
62932;BMP280;49037;41.898;25.004;2022-07-18T15:38:08;96988.94;;;27.87
62932;BMP280;49037;41.898;25.004;2022-07-18T15:40:34;96997.63;;;27.80
62932;BMP280;49037;41.898;25.004;2022-07-18T15:42:59;96993.59;;;27.83
62932;BMP280;49037;41.898;25.004;2022-07-18T15:45:24;96990.53;;;27.73
62932;BMP280;49037;41.898;25.004;2022-07-18T15:47:50;96985.09;;;27.75
62932;BMP280;49037;41.898;25.004;2022-07-18T15:50:16;96986.31;;;27.70
62932;BMP280;49037;41.898;25.004;2022-07-18T15:52:41;96991.88;;;27.72
62932;BMP280;49037;41.898;25.004;2022-07-18T15:55:07;96980.84;;;27.70
62932;BMP280;49037;41.898;25.004;2022-07-18T15:57:33;96984.53;;;27.57
62932;BMP280;49037;41.898;25.004;2022-07-18T15:59:59;96983.31;;;27.62
62932;BMP280;49037;41.898;25.004;2022-07-18T16:02:24;96984.41;;;27.53
62932;BMP280;49037;41.898;25.004;2022-07-18T16:04:50;96983.94;;;27.39
62932;BMP280;49037;41.898;25.004;2022-07-18T16:07:15;96988.91;;;27.45
62932;BMP280;49037;41.898;25.004;2022-07-18T16:09:40;96984.28;;;27.49
62932;BMP280;49037;41.898;25.004;2022-07-18T16:12:06;96981.97;;;27.42
62932;BMP280;49037;41.898;25.004;2022-07-18T16:14:32;96986.81;;;27.43
62932;BMP280;49037;41.898;25.004;2022-07-18T16:16:58;96981.97;;;27.23
62932;BMP280;49037;41.898;25.004;2022-07-18T16:19:24;96986.13;;;27.24
62932;BMP280;49037;41.898;25.004;2022-07-18T16:21:49;96982.53;;;27.38
62932;BMP280;49037;41.898;25.004;2022-07-18T16:24:15;96982.69;;;27.23
62932;BMP280;49037;41.898;25.004;2022-07-18T16:26:40;96981.50;;;27.28
62932;BMP280;49037;41.898;25.004;2022-07-18T16:29:06;96983.75;;;27.34
62932;BMP280;49037;41.898;25.004;2022-07-18T16:31:31;96996.00;;;27.31
62932;BMP280;49037;41.898;25.004;2022-07-18T16:33:57;96986.00;;;27.20
62932;BMP280;49037;41.898;25.004;2022-07-18T16:36:23;96992.44;;;27.07
62932;BMP280;49037;41.898;25.004;2022-07-18T16:38:48;96990.75;;;26.98
62932;BMP280;49037;41.898;25.004;2022-07-18T16:41:14;96979.69;;;26.96
62932;BMP280;49037;41.898;25.004;2022-07-18T16:43:40;96997.56;;;26.97
62932;BMP280;49037;41.898;25.004;2022-07-18T16:46:06;97005.13;;;26.99
62932;BMP280;49037;41.898;25.004;2022-07-18T16:48:32;97000.09;;;26.91
62932;BMP280;49037;41.898;25.004;2022-07-18T16:50:58;97001.22;;;26.84
62932;BMP280;49037;41.898;25.004;2022-07-18T16:53:25;96990.78;;;26.81
62932;BMP280;49037;41.898;25.004;2022-07-18T16:55:52;96999.94;;;26.87
62932;BMP280;49037;41.898;25.004;2022-07-18T16:58:20;96992.38;;;26.86
62932;BMP280;49037;41.898;25.004;2022-07-18T17:00:48;97002.63;;;26.85
62932;BMP280;49037;41.898;25.004;2022-07-18T17:06:00;96999.44;;;26.73
62932;BMP280;49037;41.898;25.004;2022-07-18T17:08:26;97006.56;;;26.80
62932;BMP280;49037;41.898;25.004;2022-07-18T17:10:52;96997.47;;;26.76
62932;BMP280;49037;41.898;25.004;2022-07-18T17:13:19;97000.78;;;26.72
62932;BMP280;49037;41.898;25.004;2022-07-18T17:15:45;96997.81;;;26.67
62932;BMP280;49037;41.898;25.004;2022-07-18T17:18:14;97002.44;;;26.62
62932;BMP280;49037;41.898;25.004;2022-07-18T17:20:41;97007.03;;;26.56
62932;BMP280;49037;41.898;25.004;2022-07-18T17:23:07;96999.19;;;26.48
62932;BMP280;49037;41.898;25.004;2022-07-18T17:25:35;97004.53;;;26.44
62932;BMP280;49037;41.898;25.004;2022-07-18T17:28:12;97008.84;;;26.32
62932;BMP280;49037;41.898;25.004;2022-07-18T17:30:40;97003.84;;;26.27
62932;BMP280;49037;41.898;25.004;2022-07-18T17:33:46;97007.13;;;26.23
62932;BMP280;49037;41.898;25.004;2022-07-18T17:36:15;97008.09;;;26.12
62932;BMP280;49037;41.898;25.004;2022-07-18T17:38:41;97008.88;;;25.98
62932;BMP280;49037;41.898;25.004;2022-07-18T18:43:55;97058.31;;;22.85
62932;BMP280;49037;41.898;25.004;2022-07-18T19:37:58;97107.72;;;22.80
62932;BMP280;49037;41.898;25.004;2022-07-18T20:09:41;97125.28;;;22.77
62932;BMP280;49037;41.898;25.004;2022-07-18T20:12:21;97125.72;;;22.60
62932;BMP280;49037;41.898;25.004;2022-07-18T20:18:38;97136.97;;;22.18
62932;BMP280;49037;41.898;25.004;2022-07-18T20:21:13;97125.13;;;22.03
62932;BMP280;49037;41.898;25.004;2022-07-18T20:23:41;97126.47;;;21.90
62932;BMP280;49037;41.898;25.004;2022-07-18T20:26:19;97129.88;;;21.79
62932;BMP280;49037;41.898;25.004;2022-07-18T20:45:42;97151.28;;;21.96
62932;BMP280;49037;41.898;25.004;2022-07-18T20:48:12;97160.88;;;21.74
62932;BMP280;49037;41.898;25.004;2022-07-18T21:06:31;97165.69;;;21.65
62932;BMP280;49037;41.898;25.004;2022-07-18T21:09:05;97164.00;;;21.48
62932;BMP280;49037;41.898;25.004;2022-07-18T21:11:31;97160.84;;;21.40
62932;BMP280;49037;41.898;25.004;2022-07-18T21:14:02;97171.22;;;21.33
62932;BMP280;49037;41.898;25.004;2022-07-18T21:16:56;97169.38;;;21.14
62932;BMP280;49037;41.898;25.004;2022-07-18T21:19:24;97184.06;;;21.21
62932;BMP280;49037;41.898;25.004;2022-07-18T21:21:52;97183.41;;;21.11
62932;BMP280;49037;41.898;25.004;2022-07-18T21:24:23;97171.59;;;21.06
62932;BMP280;49037;41.898;25.004;2022-07-18T21:27:02;97172.06;;;21.03
62932;BMP280;49037;41.898;25.004;2022-07-18T21:29:35;97182.41;;;20.95
62932;BMP280;49037;41.898;25.004;2022-07-18T21:32:13;97177.88;;;20.88
62932;BMP280;49037;41.898;25.004;2022-07-18T21:34:40;97185.59;;;20.92
62932;BMP280;49037;41.898;25.004;2022-07-18T22:07:45;97197.53;;;22.30
62932;BMP280;49037;41.898;25.004;2022-07-18T22:10:13;97192.84;;;22.19
62932;BMP280;49037;41.898;25.004;2022-07-18T22:12:38;97194.59;;;22.04
62932;BMP280;49037;41.898;25.004;2022-07-18T22:15:04;97191.88;;;21.92
62932;BMP280;49037;41.898;25.004;2022-07-18T22:17:30;97190.34;;;21.78
62932;BMP280;49037;41.898;25.004;2022-07-18T22:19:55;97187.47;;;21.76
62932;BMP280;49037;41.898;25.004;2022-07-18T22:22:21;97207.34;;;21.78
62932;BMP280;49037;41.898;25.004;2022-07-18T22:24:48;97204.19;;;21.82
62932;BMP280;49037;41.898;25.004;2022-07-18T22:27:13;97205.09;;;21.86
62932;BMP280;49037;41.898;25.004;2022-07-18T22:29:39;97198.28;;;21.85
62932;BMP280;49037;41.898;25.004;2022-07-18T22:32:05;97197.53;;;21.85
62932;BMP280;49037;41.898;25.004;2022-07-18T22:34:31;97196.00;;;21.71
62932;BMP280;49037;41.898;25.004;2022-07-18T22:36:56;97190.09;;;21.63
62932;BMP280;49037;41.898;25.004;2022-07-18T22:39:22;97187.38;;;21.63
62932;BMP280;49037;41.898;25.004;2022-07-18T22:41:48;97182.72;;;21.54
62932;BMP280;49037;41.898;25.004;2022-07-18T22:44:13;97187.41;;;21.42
62932;BMP280;49037;41.898;25.004;2022-07-18T22:46:39;97189.69;;;21.45
62932;BMP280;49037;41.898;25.004;2022-07-18T22:49:04;97187.56;;;21.44
62932;BMP280;49037;41.898;25.004;2022-07-18T22:51:33;97196.31;;;21.54
62932;BMP280;49037;41.898;25.004;2022-07-18T22:53:59;97193.03;;;21.55
62932;BMP280;49037;41.898;25.004;2022-07-18T23:55:45;97167.97;;;20.10
62932;BMP280;49037;41.898;25.004;2022-07-18T23:58:32;97168.09;;;19.82
